Ivalo, Finland

8:55 PM EEST on August 29, 2015 (GMT +0300)
Ivalo | | Change Station
CLOSE
Current Station
Airport
Location: Ivalo,
Elevation: 486 ft
Nearby Weather Stations

Elev 486 ft 68.61 °N, 27.41 °E | Updated 35 minutes ago

Overcast
Overcast
52 °F
Feels Like 52 °F
N
7
Wind Variable Wind from SSE

Today
High -- | Low -- °F
--% Chance of Precip.
Yesterday
High -- | Low -- °F
Precip. -- in
5:19 AM 9:00 PM
Full, 100% visible
Pressure 29.71 in
Visibility 6.2 miles
Clouds Overcast 1200 ft
Dew Point 48 °F
Humidity 88%
Rainfall 0.00 in
Snow Depth Not available.
UV 0 out of 12
Pollen Not available.
Air Quality Not available.
Flu Activity Not available.
METAR EFIV 291720Z AUTO 15006KT 120V190 9999 OVC012 11/09 Q1006
Pressure 29.71 in
Visibility 6.2 miles
Clouds Overcast 1200 ft
Dew Point 48 °F
Humidity 88%
Rainfall 0.00 in
Snow Depth Not available.
UV 0 out of 12
Pollen Not available.
Air Quality Not available.
Flu Activity Not available.
METAR EFIV 291720Z AUTO 15006KT 120V190 9999 OVC012 11/09 Q1006

10-Day Weather Forecast

×

Almanac

Astronomy

Aug. 29, 2015 Rise Set
Actual Time
Civil Twilight
Nautical Twilight
Astronomical Twilight
Moon
Length of Visible Light
Length of Day
Tomorrow will be .
, % of the Moon is Illuminated

Today's Extremes

Country Highs Country Lows

Community

WunderPhotos

Upload Photos

1,850,743 photos uploaded!

WunderBlogs® & News

Nearby

Air Quality

  Air Quality AQ Index Pollutant
Not available.

Snow Depth

Station Depth Elevation

Earthquake Activity

City Distance Mag. Time & Date
Minimum magnitude displayed is 2.5.

Coastal Water Temperatures

Place Temperature

Stations

Nearby Weather Stations

Station Location Temp. Windchill Dew Point Humidity Wind Precip. Elev Updated Type